sensor_id;sensor_type;location;lat;lon;timestamp;pressure;altitude;pressure_sealevel;temperature;humidity
28448;BME280;15675;52.870;-1.416;2023-11-21T00:02:23;101057.63;;;12.18;100.00
28448;BME280;15675;52.870;-1.416;2023-11-21T00:04:50;101054.16;;;12.16;100.00
28448;BME280;15675;52.870;-1.416;2023-11-21T00:07:15;101060.13;;;11.93;100.00
28448;BME280;15675;52.870;-1.416;2023-11-21T00:09:41;101061.78;;;11.72;100.00
28448;BME280;15675;52.870;-1.416;2023-11-21T00:12:10;101063.69;;;12.17;100.00
28448;BME280;15675;52.870;-1.416;2023-11-21T00:14:37;101066.31;;;12.35;100.00
28448;BME280;15675;52.870;-1.416;2023-11-21T00:17:03;101059.38;;;12.28;100.00
28448;BME280;15675;52.870;-1.416;2023-11-21T00:19:29;101064.66;;;12.51;100.00
28448;BME280;15675;52.870;-1.416;2023-11-21T00:21:54;101068.13;;;12.83;100.00
28448;BME280;15675;52.870;-1.416;2023-11-21T00:24:20;101074.19;;;12.72;100.00
28448;BME280;15675;52.870;-1.416;2023-11-21T00:26:45;101078.53;;;12.64;100.00
28448;BME280;15675;52.870;-1.416;2023-11-21T00:29:14;101089.78;;;12.45;100.00
28448;BME280;15675;52.870;-1.416;2023-11-21T00:31:39;101085.44;;;12.50;100.00
28448;BME280;15675;52.870;-1.416;2023-11-21T00:34:05;101083.75;;;12.64;100.00
28448;BME280;15675;52.870;-1.416;2023-11-21T00:36:31;101099.22;;;12.05;100.00
28448;BME280;15675;52.870;-1.416;2023-11-21T00:38:58;101107.94;;;12.18;100.00
28448;BME280;15675;52.870;-1.416;2023-11-21T00:41:25;101115.66;;;11.95;100.00
28448;BME280;15675;52.870;-1.416;2023-11-21T00:43:53;101128.28;;;11.30;100.00
28448;BME280;15675;52.870;-1.416;2023-11-21T00:46:19;101127.75;;;11.93;100.00
28448;BME280;15675;52.870;-1.416;2023-11-21T00:48:45;101129.22;;;11.42;100.00
28448;BME280;15675;52.870;-1.416;2023-11-21T00:51:10;101123.19;;;11.50;100.00
28448;BME280;15675;52.870;-1.416;2023-11-21T00:53:35;101130.16;;;11.56;100.00
28448;BME280;15675;52.870;-1.416;2023-11-21T00:56:01;101113.88;;;11.91;100.00
28448;BME280;15675;52.870;-1.416;2023-11-21T00:58:28;101118.03;;;11.61;100.00
28448;BME280;15675;52.870;-1.416;2023-11-21T01:00:53;101125.03;;;11.68;100.00
28448;BME280;15675;52.870;-1.416;2023-11-21T01:03:19;101127.56;;;11.57;100.00
28448;BME280;15675;52.870;-1.416;2023-11-21T01:05:45;101145.53;;;11.25;100.00
28448;BME280;15675;52.870;-1.416;2023-11-21T01:08:11;101126.53;;;11.32;100.00
28448;BME280;15675;52.870;-1.416;2023-11-21T01:10:36;101134.34;;;11.35;100.00
28448;BME280;15675;52.870;-1.416;2023-11-21T01:13:02;101142.28;;;11.57;100.00
28448;BME280;15675;52.870;-1.416;2023-11-21T01:15:31;101138.72;;;11.41;100.00
28448;BME280;15675;52.870;-1.416;2023-11-21T01:17:57;101141.41;;;11.55;100.00
28448;BME280;15675;52.870;-1.416;2023-11-21T01:20:23;101153.59;;;11.64;100.00
28448;BME280;15675;52.870;-1.416;2023-11-21T01:22:49;101151.78;;;11.49;100.00
28448;BME280;15675;52.870;-1.416;2023-11-21T01:25:14;101150.28;;;11.92;100.00
28448;BME280;15675;52.870;-1.416;2023-11-21T01:27:42;101155.56;;;11.99;100.00
28448;BME280;15675;52.870;-1.416;2023-11-21T01:30:09;101165.03;;;11.90;100.00
28448;BME280;15675;52.870;-1.416;2023-11-21T01:32:37;101170.84;;;11.48;100.00
28448;BME280;15675;52.870;-1.416;2023-11-21T01:35:03;101182.09;;;11.50;100.00
28448;BME280;15675;52.870;-1.416;2023-11-21T01:37:31;101180.63;;;11.90;100.00
28448;BME280;15675;52.870;-1.416;2023-11-21T01:39:57;101184.63;;;11.39;100.00
28448;BME280;15675;52.870;-1.416;2023-11-21T01:42:22;101185.34;;;11.21;100.00
28448;BME280;15675;52.870;-1.416;2023-11-21T01:44:48;101213.28;;;11.48;100.00
28448;BME280;15675;52.870;-1.416;2023-11-21T01:47:14;101192.41;;;11.34;100.00
28448;BME280;15675;52.870;-1.416;2023-11-21T01:49:43;101221.81;;;11.29;100.00
28448;BME280;15675;52.870;-1.416;2023-11-21T01:52:09;101207.13;;;11.35;100.00
28448;BME280;15675;52.870;-1.416;2023-11-21T01:54:37;101216.94;;;11.75;100.00
28448;BME280;15675;52.870;-1.416;2023-11-21T01:57:03;101214.09;;;11.43;100.00
28448;BME280;15675;52.870;-1.416;2023-11-21T01:59:38;101222.16;;;11.75;100.00
28448;BME280;15675;52.870;-1.416;2023-11-21T02:02:07;101229.00;;;11.64;100.00
28448;BME280;15675;52.870;-1.416;2023-11-21T02:04:35;101239.22;;;11.37;100.00
28448;BME280;15675;52.870;-1.416;2023-11-21T02:07:04;101241.72;;;11.28;100.00
28448;BME280;15675;52.870;-1.416;2023-11-21T02:09:33;101236.91;;;11.74;100.00
28448;BME280;15675;52.870;-1.416;2023-11-21T02:11:59;101239.56;;;11.88;100.00
28448;BME280;15675;52.870;-1.416;2023-11-21T02:14:26;101246.44;;;11.77;100.00
28448;BME280;15675;52.870;-1.416;2023-11-21T02:16:53;101247.03;;;11.44;100.00
28448;BME280;15675;52.870;-1.416;2023-11-21T02:19:20;101248.84;;;11.51;100.00
28448;BME280;15675;52.870;-1.416;2023-11-21T02:21:52;101268.44;;;11.13;100.00
28448;BME280;15675;52.870;-1.416;2023-11-21T02:24:22;101268.53;;;11.26;100.00
28448;BME280;15675;52.870;-1.416;2023-11-21T02:26:48;101263.56;;;11.47;100.00
28448;BME280;15675;52.870;-1.416;2023-11-21T02:29:20;101270.09;;;11.07;100.00
28448;BME280;15675;52.870;-1.416;2023-11-21T02:31:52;101264.97;;;11.14;100.00
28448;BME280;15675;52.870;-1.416;2023-11-21T02:34:20;101274.84;;;10.68;100.00
28448;BME280;15675;52.870;-1.416;2023-11-21T02:36:46;101288.22;;;11.00;100.00
28448;BME280;15675;52.870;-1.416;2023-11-21T02:39:15;101265.75;;;11.09;100.00
28448;BME280;15675;52.870;-1.416;2023-11-21T02:41:42;101264.94;;;11.13;100.00
28448;BME280;15675;52.870;-1.416;2023-11-21T02:44:08;101294.22;;;10.95;100.00
28448;BME280;15675;52.870;-1.416;2023-11-21T02:46:34;101271.44;;;10.70;100.00
28448;BME280;15675;52.870;-1.416;2023-11-21T02:49:03;101270.84;;;10.96;100.00
28448;BME280;15675;52.870;-1.416;2023-11-21T02:51:31;101271.75;;;11.00;100.00
28448;BME280;15675;52.870;-1.416;2023-11-21T02:53:56;101277.66;;;10.86;100.00
28448;BME280;15675;52.870;-1.416;2023-11-21T02:56:25;101284.09;;;11.21;100.00
28448;BME280;15675;52.870;-1.416;2023-11-21T02:58:51;101282.28;;;11.15;100.00
28448;BME280;15675;52.870;-1.416;2023-11-21T03:01:17;101294.22;;;10.95;100.00
28448;BME280;15675;52.870;-1.416;2023-11-21T03:03:43;101287.63;;;11.26;100.00
28448;BME280;15675;52.870;-1.416;2023-11-21T03:06:08;101290.28;;;11.35;100.00
28448;BME280;15675;52.870;-1.416;2023-11-21T03:08:34;101302.09;;;11.04;100.00
28448;BME280;15675;52.870;-1.416;2023-11-21T03:11:00;101280.53;;;11.13;100.00
28448;BME280;15675;52.870;-1.416;2023-11-21T03:13:26;101300.88;;;10.74;100.00
28448;BME280;15675;52.870;-1.416;2023-11-21T03:15:51;101296.78;;;10.93;100.00
28448;BME280;15675;52.870;-1.416;2023-11-21T03:18:17;101309.47;;;10.70;99.94
28448;BME280;15675;52.870;-1.416;2023-11-21T03:20:45;101288.25;;;11.03;98.51
28448;BME280;15675;52.870;-1.416;2023-11-21T03:23:14;101298.38;;;10.80;98.75
28448;BME280;15675;52.870;-1.416;2023-11-21T03:25:40;101290.19;;;11.25;98.10
28448;BME280;15675;52.870;-1.416;2023-11-21T03:28:06;101293.66;;;11.25;95.37
28448;BME280;15675;52.870;-1.416;2023-11-21T03:30:33;101301.50;;;11.30;94.73
28448;BME280;15675;52.870;-1.416;2023-11-21T03:32:59;101300.13;;;11.69;93.22
28448;BME280;15675;52.870;-1.416;2023-11-21T03:35:24;101301.03;;;11.77;92.51
28448;BME280;15675;52.870;-1.416;2023-11-21T03:37:50;101310.06;;;11.19;92.62
28448;BME280;15675;52.870;-1.416;2023-11-21T03:40:15;101303.22;;;11.26;94.60
28448;BME280;15675;52.870;-1.416;2023-11-21T03:42:41;101299.06;;;11.47;93.68
28448;BME280;15675;52.870;-1.416;2023-11-21T03:45:07;101292.25;;;11.61;92.24
28448;BME280;15675;52.870;-1.416;2023-11-21T03:47:34;101300.13;;;11.70;91.56
28448;BME280;15675;52.870;-1.416;2023-11-21T03:49:59;101313.28;;;10.98;93.89
28448;BME280;15675;52.870;-1.416;2023-11-21T03:52:25;101319.53;;;11.16;94.64
28448;BME280;15675;52.870;-1.416;2023-11-21T03:54:50;101321.06;;;10.97;95.23
28448;BME280;15675;52.870;-1.416;2023-11-21T03:57:16;101316.00;;;11.09;96.67
28448;BME280;15675;52.870;-1.416;2023-11-21T03:59:42;101311.88;;;11.27;95.12
28448;BME280;15675;52.870;-1.416;2023-11-21T04:02:09;101325.31;;;10.90;95.55
28448;BME280;15675;52.870;-1.416;2023-11-21T04:04:37;101323.97;;;11.25;96.54
28448;BME280;15675;52.870;-1.416;2023-11-21T04:07:04;101332.84;;;11.45;95.29
28448;BME280;15675;52.870;-1.416;2023-11-21T04:09:30;101332.63;;;11.23;95.13
28448;BME280;15675;52.870;-1.416;2023-11-21T04:11:55;101342.69;;;10.97;96.69
28448;BME280;15675;52.870;-1.416;2023-11-21T04:14:21;101348.94;;;11.10;97.45
28448;BME280;15675;52.870;-1.416;2023-11-21T04:16:47;101360.13;;;11.04;97.27
28448;BME280;15675;52.870;-1.416;2023-11-21T04:19:13;101366.31;;;11.16;97.29
28448;BME280;15675;52.870;-1.416;2023-11-21T04:21:41;101374.44;;;11.47;96.21
28448;BME280;15675;52.870;-1.416;2023-11-21T04:24:07;101367.09;;;11.09;96.91
28448;BME280;15675;52.870;-1.416;2023-11-21T04:26:32;101372.63;;;11.38;97.52
28448;BME280;15675;52.870;-1.416;2023-11-21T04:28:58;101371.78;;;11.40;95.90
28448;BME280;15675;52.870;-1.416;2023-11-21T04:31:24;101371.16;;;10.85;98.18
28448;BME280;15675;52.870;-1.416;2023-11-21T04:33:49;101372.09;;;10.92;98.86
28448;BME280;15675;52.870;-1.416;2023-11-21T04:36:15;101375.63;;;11.00;99.88
28448;BME280;15675;52.870;-1.416;2023-11-21T04:38:40;101372.16;;;10.98;100.00
28448;BME280;15675;52.870;-1.416;2023-11-21T04:41:06;101387.63;;;10.90;100.00
28448;BME280;15675;52.870;-1.416;2023-11-21T04:43:32;101378.25;;;11.00;100.00
28448;BME280;15675;52.870;-1.416;2023-11-21T04:45:57;101384.56;;;11.19;100.00
28448;BME280;15675;52.870;-1.416;2023-11-21T04:48:23;101383.94;;;10.73;100.00
28448;BME280;15675;52.870;-1.416;2023-11-21T04:50:48;101398.00;;;10.87;100.00
28448;BME280;15675;52.870;-1.416;2023-11-21T04:53:14;101405.97;;;10.99;100.00
28448;BME280;15675;52.870;-1.416;2023-11-21T04:55:42;101407.59;;;10.94;100.00
28448;BME280;15675;52.870;-1.416;2023-11-21T04:58:09;101408.38;;;10.87;100.00
28448;BME280;15675;52.870;-1.416;2023-11-21T05:00:35;101406.97;;;11.12;100.00
28448;BME280;15675;52.870;-1.416;2023-11-21T05:03:02;101415.13;;;10.74;100.00
28448;BME280;15675;52.870;-1.416;2023-11-21T05:05:29;101414.59;;;10.98;100.00
28448;BME280;15675;52.870;-1.416;2023-11-21T05:07:55;101419.44;;;10.72;100.00
28448;BME280;15675;52.870;-1.416;2023-11-21T05:10:20;101436.88;;;10.81;100.00
28448;BME280;15675;52.870;-1.416;2023-11-21T05:12:47;101431.84;;;10.92;100.00
28448;BME280;15675;52.870;-1.416;2023-11-21T05:15:16;101432.38;;;10.67;100.00
28448;BME280;15675;52.870;-1.416;2023-11-21T05:17:45;101433.50;;;10.88;100.00
28448;BME280;15675;52.870;-1.416;2023-11-21T05:20:11;101434.13;;;10.70;100.00
28448;BME280;15675;52.870;-1.416;2023-11-21T05:22:38;101424.97;;;10.98;100.00
28448;BME280;15675;52.870;-1.416;2023-11-21T05:25:05;101425.81;;;10.97;100.00
28448;BME280;15675;52.870;-1.416;2023-11-21T05:27:32;101430.41;;;11.15;100.00
28448;BME280;15675;52.870;-1.416;2023-11-21T05:29:57;101433.44;;;10.82;100.00
28448;BME280;15675;52.870;-1.416;2023-11-21T05:32:26;101441.53;;;11.05;100.00
28448;BME280;15675;52.870;-1.416;2023-11-21T05:34:53;101442.13;;;10.87;100.00
28448;BME280;15675;52.870;-1.416;2023-11-21T05:37:18;101444.56;;;10.73;100.00
28448;BME280;15675;52.870;-1.416;2023-11-21T05:39:44;101444.97;;;11.02;100.00
28448;BME280;15675;52.870;-1.416;2023-11-21T05:42:09;101458.25;;;10.63;100.00
28448;BME280;15675;52.870;-1.416;2023-11-21T05:44:37;101464.31;;;10.62;100.00
28448;BME280;15675;52.870;-1.416;2023-11-21T05:47:02;101471.25;;;10.64;100.00
28448;BME280;15675;52.870;-1.416;2023-11-21T05:49:29;101467.09;;;10.22;100.00
28448;BME280;15675;52.870;-1.416;2023-11-21T05:51:55;101470.47;;;10.18;100.00
28448;BME280;15675;52.870;-1.416;2023-11-21T05:54:21;101471.66;;;10.35;100.00
28448;BME280;15675;52.870;-1.416;2023-11-21T05:56:47;101478.00;;;10.53;100.00
28448;BME280;15675;52.870;-1.416;2023-11-21T05:59:13;101487.66;;;10.13;100.00
28448;BME280;15675;52.870;-1.416;2023-11-21T06:01:38;101478.16;;;10.62;100.00
28448;BME280;15675;52.870;-1.416;2023-11-21T06:04:05;101488.75;;;10.26;100.00
28448;BME280;15675;52.870;-1.416;2023-11-21T06:06:30;101495.47;;;10.14;100.00
28448;BME280;15675;52.870;-1.416;2023-11-21T06:08:57;101514.66;;;10.23;100.00
28448;BME280;15675;52.870;-1.416;2023-11-21T06:11:22;101504.78;;;10.49;100.00
28448;BME280;15675;52.870;-1.416;2023-11-21T06:13:50;101520.25;;;9.98;100.00
28448;BME280;15675;52.870;-1.416;2023-11-21T06:16:15;101524.72;;;10.06;100.00
28448;BME280;15675;52.870;-1.416;2023-11-21T06:18:45;101523.19;;;10.17;100.00
28448;BME280;15675;52.870;-1.416;2023-11-21T06:21:11;101533.09;;;10.36;100.00
28448;BME280;15675;52.870;-1.416;2023-11-21T06:23:37;101535.16;;;10.10;100.00
28448;BME280;15675;52.870;-1.416;2023-11-21T06:26:03;101542.81;;;10.02;100.00
28448;BME280;15675;52.870;-1.416;2023-11-21T06:28:30;101554.06;;;10.03;100.00
28448;BME280;15675;52.870;-1.416;2023-11-21T06:30:56;101541.81;;;9.96;100.00
28448;BME280;15675;52.870;-1.416;2023-11-21T06:33:24;101550.16;;;9.79;100.00
28448;BME280;15675;52.870;-1.416;2023-11-21T06:35:52;101556.28;;;9.83;100.00
28448;BME280;15675;52.870;-1.416;2023-11-21T06:38:18;101556.34;;;10.32;100.00
28448;BME280;15675;52.870;-1.416;2023-11-21T06:40:45;101558.13;;;10.34;100.00
28448;BME280;15675;52.870;-1.416;2023-11-21T06:43:10;101556.91;;;10.15;100.00
28448;BME280;15675;52.870;-1.416;2023-11-21T06:45:36;101568.91;;;10.55;100.00
28448;BME280;15675;52.870;-1.416;2023-11-21T06:48:02;101571.78;;;10.26;100.00
28448;BME280;15675;52.870;-1.416;2023-11-21T06:50:27;101576.13;;;10.27;100.00
28448;BME280;15675;52.870;-1.416;2023-11-21T06:52:53;101574.94;;;10.53;100.00
28448;BME280;15675;52.870;-1.416;2023-11-21T06:55:18;101583.13;;;10.29;100.00
28448;BME280;15675;52.870;-1.416;2023-11-21T06:57:44;101587.50;;;10.32;100.00
28448;BME280;15675;52.870;-1.416;2023-11-21T07:00:11;101596.00;;;10.70;100.00
28448;BME280;15675;52.870;-1.416;2023-11-21T07:02:37;101603.09;;;10.33;100.00
28448;BME280;15675;52.870;-1.416;2023-11-21T07:05:03;101606.13;;;10.11;100.00
28448;BME280;15675;52.870;-1.416;2023-11-21T07:07:29;101604.78;;;10.33;100.00
28448;BME280;15675;52.870;-1.416;2023-11-21T07:09:54;101612.63;;;10.34;100.00
28448;BME280;15675;52.870;-1.416;2023-11-21T07:12:20;101606.41;;;10.72;100.00
28448;BME280;15675;52.870;-1.416;2023-11-21T07:14:49;101609.09;;;10.78;100.00
28448;BME280;15675;52.870;-1.416;2023-11-21T07:17:14;101629.13;;;10.85;100.00
28448;BME280;15675;52.870;-1.416;2023-11-21T07:19:41;101629.78;;;10.72;100.00
28448;BME280;15675;52.870;-1.416;2023-11-21T07:22:07;101632.22;;;10.64;100.00
28448;BME280;15675;52.870;-1.416;2023-11-21T07:24:34;101643.97;;;10.44;100.00
28448;BME280;15675;52.870;-1.416;2023-11-21T07:26:59;101652.25;;;10.71;100.00
28448;BME280;15675;52.870;-1.416;2023-11-21T07:29:26;101660.22;;;10.81;100.00
28448;BME280;15675;52.870;-1.416;2023-11-21T07:31:55;101659.34;;;10.80;100.00
28448;BME280;15675;52.870;-1.416;2023-11-21T07:34:20;101661.78;;;10.73;100.00
28448;BME280;15675;52.870;-1.416;2023-11-21T07:36:46;101665.13;;;10.65;100.00
28448;BME280;15675;52.870;-1.416;2023-11-21T07:39:12;101674.16;;;10.40;100.00
28448;BME280;15675;52.870;-1.416;2023-11-21T07:41:38;101678.94;;;10.64;100.00
28448;BME280;15675;52.870;-1.416;2023-11-21T07:44:10;101674.06;;;10.35;100.00
28448;BME280;15675;52.870;-1.416;2023-11-21T07:46:35;101678.59;;;10.46;100.00
28448;BME280;15675;52.870;-1.416;2023-11-21T07:49:01;101692.22;;;10.34;100.00
28448;BME280;15675;52.870;-1.416;2023-11-21T07:51:27;101685.75;;;10.56;100.00
28448;BME280;15675;52.870;-1.416;2023-11-21T07:53:52;101706.06;;;10.34;100.00
28448;BME280;15675;52.870;-1.416;2023-11-21T07:56:18;101688.16;;;10.07;100.00
28448;BME280;15675;52.870;-1.416;2023-11-21T07:58:43;101696.97;;;10.14;100.00
28448;BME280;15675;52.870;-1.416;2023-11-21T08:01:10;101712.28;;;10.03;100.00
28448;BME280;15675;52.870;-1.416;2023-11-21T08:03:35;101738.75;;;10.26;100.00
28448;BME280;15675;52.870;-1.416;2023-11-21T08:06:01;101734.75;;;10.01;100.00
28448;BME280;15675;52.870;-1.416;2023-11-21T08:08:29;101727.53;;;10.29;100.00
28448;BME280;15675;52.870;-1.416;2023-11-21T08:10:54;101728.31;;;10.66;100.00
28448;BME280;15675;52.870;-1.416;2023-11-21T08:13:24;101735.28;;;10.27;100.00
28448;BME280;15675;52.870;-1.416;2023-11-21T08:15:50;101744.56;;;10.16;100.00
28448;BME280;15675;52.870;-1.416;2023-11-21T08:18:16;101756.88;;;10.25;100.00
28448;BME280;15675;52.870;-1.416;2023-11-21T08:20:43;101755.56;;;10.44;100.00
28448;BME280;15675;52.870;-1.416;2023-11-21T08:23:10;101773.56;;;10.36;100.00
28448;BME280;15675;52.870;-1.416;2023-11-21T08:25:35;101776.97;;;10.33;100.00
28448;BME280;15675;52.870;-1.416;2023-11-21T08:28:01;101767.22;;;10.64;100.00
28448;BME280;15675;52.870;-1.416;2023-11-21T08:30:27;101777.78;;;10.32;100.00
28448;BME280;15675;52.870;-1.416;2023-11-21T08:32:55;101788.31;;;10.39;100.00
28448;BME280;15675;52.870;-1.416;2023-11-21T08:35:24;101802.78;;;10.68;100.00
28448;BME280;15675;52.870;-1.416;2023-11-21T08:37:52;101814.09;;;10.31;100.00
28448;BME280;15675;52.870;-1.416;2023-11-21T08:40:19;101811.47;;;10.69;100.00
28448;BME280;15675;52.870;-1.416;2023-11-21T08:42:46;101835.97;;;10.41;100.00
28448;BME280;15675;52.870;-1.416;2023-11-21T08:45:12;101823.06;;;10.44;100.00
28448;BME280;15675;52.870;-1.416;2023-11-21T08:47:39;101827.47;;;10.48;100.00
28448;BME280;15675;52.870;-1.416;2023-11-21T08:50:06;101830.13;;;10.51;100.00
28448;BME280;15675;52.870;-1.416;2023-11-21T08:52:33;101839.66;;;10.50;100.00
28448;BME280;15675;52.870;-1.416;2023-11-21T08:54:59;101833.06;;;10.66;100.00
28448;BME280;15675;52.870;-1.416;2023-11-21T08:57:28;101838.75;;;10.50;100.00
28448;BME280;15675;52.870;-1.416;2023-11-21T08:59:53;101837.91;;;10.51;100.00
28448;BME280;15675;52.870;-1.416;2023-11-21T09:02:21;101843.41;;;10.65;100.00
28448;BME280;15675;52.870;-1.416;2023-11-21T09:04:49;101858.09;;;10.64;100.00
28448;BME280;15675;52.870;-1.416;2023-11-21T09:07:14;101854.91;;;10.76;100.00
28448;BME280;15675;52.870;-1.416;2023-11-21T09:09:40;101880.59;;;10.64;100.00
28448;BME280;15675;52.870;-1.416;2023-11-21T09:12:06;101878.50;;;10.47;100.00
28448;BME280;15675;52.870;-1.416;2023-11-21T09:14:31;101876.53;;;10.37;100.00
28448;BME280;15675;52.870;-1.416;2023-11-21T09:16:57;101884.38;;;10.40;100.00
28448;BME280;15675;52.870;-1.416;2023-11-21T09:19:22;101906.56;;;10.27;100.00
28448;BME280;15675;52.870;-1.416;2023-11-21T09:21:48;101903.69;;;10.51;100.00
28448;BME280;15675;52.870;-1.416;2023-11-21T09:24:14;101898.53;;;10.53;100.00
28448;BME280;15675;52.870;-1.416;2023-11-21T09:26:40;101918.88;;;10.34;100.00
28448;BME280;15675;52.870;-1.416;2023-11-21T09:29:05;101902.50;;;10.37;100.00
28448;BME280;15675;52.870;-1.416;2023-11-21T09:31:33;101904.09;;;10.32;100.00
28448;BME280;15675;52.870;-1.416;2023-11-21T09:33:59;101904.63;;;10.18;100.00
28448;BME280;15675;52.870;-1.416;2023-11-21T09:36:24;101908.16;;;10.59;100.00
28448;BME280;15675;52.870;-1.416;2023-11-21T09:38:52;101909.38;;;10.35;100.00
28448;BME280;15675;52.870;-1.416;2023-11-21T09:41:30;101907.53;;;10.31;100.00
28448;BME280;15675;52.870;-1.416;2023-11-21T09:44:02;101911.88;;;10.32;100.00
28448;BME280;15675;52.870;-1.416;2023-11-21T09:46:33;101926.59;;;10.33;100.00
28448;BME280;15675;52.870;-1.416;2023-11-21T09:49:00;101939.41;;;10.62;100.00
28448;BME280;15675;52.870;-1.416;2023-11-21T09:51:27;101932.84;;;10.40;100.00
28448;BME280;15675;52.870;-1.416;2023-11-21T09:53:57;101926.84;;;10.42;100.00
28448;BME280;15675;52.870;-1.416;2023-11-21T09:56:24;101938.78;;;10.35;100.00
28448;BME280;15675;52.870;-1.416;2023-11-21T09:58:53;101936.63;;;10.54;100.00
28448;BME280;15675;52.870;-1.416;2023-11-21T10:01:19;101943.72;;;10.25;100.00
28448;BME280;15675;52.870;-1.416;2023-11-21T10:03:46;101934.72;;;10.83;100.00
28448;BME280;15675;52.870;-1.416;2023-11-21T10:06:13;101955.84;;;10.61;100.00
28448;BME280;15675;52.870;-1.416;2023-11-21T10:08:42;101942.47;;;10.82;100.00
28448;BME280;15675;52.870;-1.416;2023-11-21T10:11:08;101962.78;;;10.27;100.00
28448;BME280;15675;52.870;-1.416;2023-11-21T10:13:37;101959.06;;;10.50;100.00
28448;BME280;15675;52.870;-1.416;2023-11-21T10:16:05;101981.66;;;10.55;100.00
28448;BME280;15675;52.870;-1.416;2023-11-21T10:18:33;101981.19;;;10.36;100.00
28448;BME280;15675;52.870;-1.416;2023-11-21T10:21:00;101980.72;;;10.52;100.00
28448;BME280;15675;52.870;-1.416;2023-11-21T10:23:27;101979.31;;;10.65;100.00
28448;BME280;15675;52.870;-1.416;2023-11-21T10:25:53;101982.66;;;10.61;100.00
28448;BME280;15675;52.870;-1.416;2023-11-21T10:28:20;101974.75;;;10.55;100.00
28448;BME280;15675;52.870;-1.416;2023-11-21T10:30:46;101982.78;;;10.31;100.00
28448;BME280;15675;52.870;-1.416;2023-11-21T10:33:12;101978.28;;;10.24;100.00
28448;BME280;15675;52.870;-1.416;2023-11-21T10:35:48;101986.91;;;10.56;100.00
28448;BME280;15675;52.870;-1.416;2023-11-21T10:38:20;101986.72;;;10.50;100.00
28448;BME280;15675;52.870;-1.416;2023-11-21T10:40:50;101996.63;;;10.65;100.00
28448;BME280;15675;52.870;-1.416;2023-11-21T10:43:16;101997.03;;;10.47;100.00
28448;BME280;15675;52.870;-1.416;2023-11-21T10:45:43;102008.44;;;10.90;100.00
28448;BME280;15675;52.870;-1.416;2023-11-21T10:48:10;102013.53;;;10.49;100.00
28448;BME280;15675;52.870;-1.416;2023-11-21T10:50:46;102012.38;;;10.73;100.00
28448;BME280;15675;52.870;-1.416;2023-11-21T10:53:12;102018.81;;;10.52;100.00
28448;BME280;15675;52.870;-1.416;2023-11-21T10:55:38;102017.63;;;11.14;100.00
28448;BME280;15675;52.870;-1.416;2023-11-21T10:58:04;102020.69;;;11.35;100.00
28448;BME280;15675;52.870;-1.416;2023-11-21T11:00:32;102030.34;;;10.63;100.00
28448;BME280;15675;52.870;-1.416;2023-11-21T11:02:58;102053.66;;;10.28;100.00
28448;BME280;15675;52.870;-1.416;2023-11-21T11:05:28;102052.50;;;10.49;100.00
28448;BME280;15675;52.870;-1.416;2023-11-21T11:08:05;102056.34;;;9.99;100.00
28448;BME280;15675;52.870;-1.416;2023-11-21T11:10:31;102067.38;;;10.24;100.00
28448;BME280;15675;52.870;-1.416;2023-11-21T11:12:58;102061.91;;;10.45;100.00
28448;BME280;15675;52.870;-1.416;2023-11-21T11:15:28;102064.09;;;10.31;100.00
28448;BME280;15675;52.870;-1.416;2023-11-21T11:17:54;102081.41;;;10.31;100.00
28448;BME280;15675;52.870;-1.416;2023-11-21T11:20:23;102073.06;;;10.43;100.00
28448;BME280;15675;52.870;-1.416;2023-11-21T11:23:13;102071.06;;;10.66;100.00
28448;BME280;15675;52.870;-1.416;2023-11-21T11:28:21;102072.25;;;10.12;100.00
28448;BME280;15675;52.870;-1.416;2023-11-21T11:33:50;102073.47;;;10.58;100.00
28448;BME280;15675;52.870;-1.416;2023-11-21T11:36:43;102078.69;;;10.60;100.00
28448;BME280;15675;52.870;-1.416;2023-11-21T11:39:37;102073.19;;;10.47;100.00
28448;BME280;15675;52.870;-1.416;2023-11-21T11:42:08;102077.63;;;10.51;100.00
28448;BME280;15675;52.870;-1.416;2023-11-21T11:47:16;102088.25;;;10.61;100.00
28448;BME280;15675;52.870;-1.416;2023-11-21T11:50:07;102090.38;;;10.77;100.00
28448;BME280;15675;52.870;-1.416;2023-11-21T11:52:38;102086.22;;;10.84;100.00
28448;BME280;15675;52.870;-1.416;2023-11-21T11:55:12;102091.44;;;10.49;100.00
28448;BME280;15675;52.870;-1.416;2023-11-21T11:57:54;102087.91;;;10.15;100.00
28448;BME280;15675;52.870;-1.416;2023-11-21T12:02:56;102074.31;;;10.92;100.00
28448;BME280;15675;52.870;-1.416;2023-11-21T12:05:25;102078.81;;;10.64;100.00
28448;BME280;15675;52.870;-1.416;2023-11-21T12:07:55;102060.38;;;10.53;100.00
28448;BME280;15675;52.870;-1.416;2023-11-21T12:10:24;102061.09;;;10.84;100.00
28448;BME280;15675;52.870;-1.416;2023-11-21T12:13:01;102072.72;;;10.99;100.00
28448;BME280;15675;52.870;-1.416;2023-11-21T12:15:27;102072.41;;;10.85;100.00
28448;BME280;15675;52.870;-1.416;2023-11-21T12:17:55;102064.25;;;11.06;100.00
28448;BME280;15675;52.870;-1.416;2023-11-21T12:20:23;102067.84;;;10.75;100.00
28448;BME280;15675;52.870;-1.416;2023-11-21T12:22:51;102068.03;;;11.20;100.00
28448;BME280;15675;52.870;-1.416;2023-11-21T12:25:18;102070.50;;;10.78;100.00
28448;BME280;15675;52.870;-1.416;2023-11-21T12:27:48;102059.25;;;10.79;100.00
28448;BME280;15675;52.870;-1.416;2023-11-21T12:30:19;102051.34;;;10.74;100.00
28448;BME280;15675;52.870;-1.416;2023-11-21T12:32:48;102051.91;;;10.61;100.00
28448;BME280;15675;52.870;-1.416;2023-11-21T12:35:17;102062.63;;;10.75;100.00
28448;BME280;15675;52.870;-1.416;2023-11-21T12:37:45;102064.84;;;10.27;100.00
28448;BME280;15675;52.870;-1.416;2023-11-21T12:40:12;102061.91;;;10.45;100.00
28448;BME280;15675;52.870;-1.416;2023-11-21T12:42:49;102074.34;;;10.59;100.00